الصفحة الرئيسية
METAR-TAF:

METAR-TAF

مطار :

ميناء القاهرة الجوي

القاهرة, مصر

دائرة عرض: 30-08N, خط طول: 031-24E, ارتفاع: 64 متر

مراقبة الطقس الحالي

تاريخ ووقت الإصدار 37 دقيقة قبل الساعة 06:30UTC
ريح 12 عقدة من الشرق
درجة الحرارة 23°درجة مئوية
الرطوبة 65%
ضغط 1016 hPa
الرؤية 10 كم أو أكثر
الغيوم لا تقل 1500 م ولا وجود لمزنة ركامية السحاب الأسود

METAR: HECA 260630Z 09012KT CAVOK 23/16 Q1016 NOSIG

زمن: 09:07 (07:07 UTC)

توقعات

تاريخ ووقت الإصدار 2ساعات و 7 دقيقة قبل الساعة 05:00UTC
التوقعات صالحة من26 الساعة 06 UTC إلى 27 الساعة 12 UTC
ريح 10 عقدة من الشمال الشرقي
الرؤية 10 كم أو أكثر
الغيوم لا تقل 1500 م ولا وجود لمزنة ركامية السحاب الأسود

TAF: HECA 260500Z 2606/2712 05010KT CAVOK

أرصاد الطقس والتوقعات من أكثر من 4000 مطار (تقارير الطقس للمطار METAR والتنبؤ بالطقس بالمطارTAF).

المحطات المتاحة هي النقط الصفراء والحمراء على الخريطة.

حرك المؤشر فوق النقطة لمعرفة اسم المحطة.

ثم انقر لمعرفة أرصاد وتوقعات الطقس.

لتغيير الخارطة: اضغط على الأزرار الخضراء مع رمز الصليب الأسود للتكبير. على الزر الأخضر مع شرطة للتصغير، أو على الأسهم الخضراء للخرائط المجاورة.


METAR-TAF: